createdAt,value
2023-03-26T00:01:27.802Z,12.07
2023-03-26T00:05:29.255Z,12.47
2023-03-26T00:09:30.725Z,11.99
2023-03-26T00:13:33.167Z,12.17
2023-03-26T00:17:34.646Z,12.12
2023-03-26T00:21:37.183Z,12.40
2023-03-26T00:25:41.384Z,12.50
2023-03-26T00:29:43.066Z,12.63
2023-03-26T00:33:44.689Z,12.49
2023-03-26T00:37:46.635Z,12.95
2023-03-26T00:41:48.109Z,12.42
2023-03-26T00:45:52.178Z,12.57
2023-03-26T00:49:54.402Z,12.78
2023-03-26T00:53:57.144Z,12.66
2023-03-26T00:57:58.720Z,12.50
2023-03-26T01:02:00.418Z,12.49
2023-03-26T01:06:10.918Z,12.51
2023-03-26T01:10:14.747Z,12.85
2023-03-26T01:14:20.172Z,12.65
2023-03-26T01:18:26.290Z,12.54
2023-03-26T01:22:27.813Z,12.22
2023-03-26T01:26:55.612Z,12.26
2023-03-26T01:31:10.724Z,12.67
2023-03-26T01:35:28.229Z,12.71
2023-03-26T01:39:53.172Z,12.59
2023-03-26T01:44:02.100Z,12.61
2023-03-26T01:48:04.734Z,12.70
2023-03-26T01:52:16.408Z,12.70
2023-03-26T01:56:31.561Z,12.48
2023-03-26T02:00:41.380Z,12.48
2023-03-26T02:05:05.987Z,12.57
2023-03-26T02:09:11.342Z,12.29
2023-03-26T02:13:13.467Z,12.17
2023-03-26T02:17:16.697Z,12.27
2023-03-26T02:21:21.293Z,12.32
2023-03-26T02:25:23.999Z,12.23
2023-03-26T02:29:26.818Z,12.79
2023-03-26T02:33:30.319Z,13.03
2023-03-26T02:37:33.792Z,12.16
2023-03-26T02:41:43.607Z,12.23
2023-03-26T02:45:46.863Z,12.14
2023-03-26T02:50:08.868Z,12.32
2023-03-26T02:54:26.325Z,12.74
2023-03-26T02:58:38.442Z,12.27
2023-03-26T03:02:40.651Z,11.98
2023-03-26T03:07:00.888Z,12.47
2023-03-26T03:11:17.928Z,12.50
2023-03-26T03:15:23.301Z,12.63
2023-03-26T03:19:24.801Z,12.66
2023-03-26T03:23:26.476Z,12.28
2023-03-26T03:27:39.263Z,11.77
2023-03-26T03:31:45.635Z,12.26
2023-03-26T03:36:00.721Z,12.05
2023-03-26T03:40:07.474Z,12.09
2023-03-26T03:44:10.119Z,11.90
2023-03-26T03:48:11.584Z,12.40
2023-03-26T03:52:18.153Z,12.51
2023-03-26T03:56:24.001Z,12.47
2023-03-26T04:00:46.260Z,12.17
2023-03-26T04:05:19.773Z,12.31
2023-03-26T04:09:24.550Z,12.07
2023-03-26T04:13:28.999Z,12.24
2023-03-26T04:17:47.530Z,11.76
2023-03-26T04:21:51.801Z,12.03
2023-03-26T04:25:56.223Z,11.82
2023-03-26T04:30:15.421Z,11.85
2023-03-26T04:34:23.956Z,11.80
2023-03-26T04:38:52.022Z,12.16
2023-03-26T04:42:59.888Z,11.93
2023-03-26T04:47:36.773Z,12.04
2023-03-26T04:51:41.809Z,12.29
2023-03-26T04:56:04.064Z,11.97
2023-03-26T05:00:32.100Z,12.04
2023-03-26T05:04:36.702Z,11.55
2023-03-26T05:08:38.723Z,11.61
2023-03-26T05:12:41.559Z,11.64
2023-03-26T05:16:48.971Z,11.83
2023-03-26T05:20:50.625Z,11.62
2023-03-26T05:24:52.462Z,11.46
2023-03-26T05:28:54.167Z,11.59
2023-03-26T05:32:59.803Z,11.36
2023-03-26T05:37:06.815Z,11.63
2023-03-26T05:41:26.990Z,11.56
2023-03-26T05:45:28.912Z,11.79
2023-03-26T05:49:32.110Z,11.66
2023-03-26T05:53:34.286Z,11.77
2023-03-26T05:58:01.628Z,11.99
2023-03-26T06:02:22.256Z,11.54
2023-03-26T06:06:53.995Z,10.70
2023-03-26T06:11:04.372Z,11.02
2023-03-26T06:15:11.041Z,10.77
2023-03-26T06:19:21.251Z,10.48
2023-03-26T06:23:41.299Z,11.10
2023-03-26T06:27:53.628Z,10.79
2023-03-26T06:32:20.510Z,10.87
2023-03-26T06:36:33.234Z,11.12
2023-03-26T06:40:34.695Z,10.84
2023-03-26T06:44:55.153Z,10.35
2023-03-26T06:49:08.732Z,10.59
2023-03-26T06:53:16.796Z,10.55
2023-03-26T06:57:37.800Z,11.10
2023-03-26T07:02:02.018Z,11.53
2023-03-26T07:06:21.938Z,11.11
2023-03-26T07:10:42.105Z,11.12
2023-03-26T07:15:11.288Z,11.33
2023-03-26T07:19:40.395Z,10.38
2023-03-26T07:23:42.118Z,10.67
2023-03-26T07:28:33.372Z,10.81
2023-03-26T07:32:52.323Z,11.03
2023-03-26T07:37:44.064Z,10.81
2023-03-26T07:42:41.750Z,11.22
2023-03-26T07:47:49.469Z,10.67
2023-03-26T07:51:57.526Z,10.86
2023-03-26T07:56:58.005Z,11.17
2023-03-26T08:01:29.016Z,10.82
2023-03-26T08:05:40.579Z,10.90
2023-03-26T08:09:56.817Z,10.89
2023-03-26T08:14:27.650Z,10.65
2023-03-26T08:18:59.441Z,10.69
2023-03-26T08:23:27.680Z,10.76
2023-03-26T08:27:43.496Z,10.51
2023-03-26T08:31:48.336Z,11.00
2023-03-26T08:35:50.075Z,11.11
2023-03-26T08:39:51.630Z,11.20
2023-03-26T08:44:05.867Z,10.97
2023-03-26T08:48:34.079Z,10.63
2023-03-26T08:53:02.685Z,10.80
2023-03-26T08:57:40.790Z,10.60
2023-03-26T09:02:08.688Z,10.95
2023-03-26T09:06:26.145Z,10.82
2023-03-26T09:10:46.243Z,11.11
2023-03-26T09:15:12.504Z,11.50
2023-03-26T09:19:37.398Z,11.25
2023-03-26T09:23:49.602Z,11.14
2023-03-26T09:28:06.167Z,11.14
2023-03-26T09:32:22.904Z,10.66
2023-03-26T09:36:40.744Z,10.66
2023-03-26T09:40:52.949Z,11.37
2023-03-26T09:45:31.928Z,11.31
2023-03-26T09:49:51.676Z,11.10
2023-03-26T09:54:18.475Z,11.34
2023-03-26T09:58:48.461Z,11.60
2023-03-26T10:03:28.837Z,11.31
2023-03-26T10:08:01.404Z,11.10
2023-03-26T10:12:15.691Z,11.04
2023-03-26T10:16:35.632Z,11.20
2023-03-26T10:20:59.071Z,11.15
2023-03-26T10:25:28.751Z,11.44
2023-03-26T10:30:07.742Z,11.54
2023-03-26T10:34:45.876Z,11.09
2023-03-26T10:39:07.373Z,11.58
2023-03-26T10:43:24.071Z,11.40
2023-03-26T10:47:48.092Z,11.42
2023-03-26T10:52:02.084Z,11.03
2023-03-26T10:56:23.165Z,11.04
2023-03-26T11:00:28.948Z,11.64
2023-03-26T11:04:42.792Z,11.02
2023-03-26T11:08:59.365Z,12.02
2023-03-26T11:13:15.981Z,11.40
2023-03-26T11:17:40.627Z,11.84
2023-03-26T11:21:51.990Z,12.17
2023-03-26T11:26:16.548Z,11.07
2023-03-26T11:30:29.718Z,10.92
2023-03-26T11:34:38.602Z,11.43
2023-03-26T11:38:47.403Z,11.44
2023-03-26T11:42:58.930Z,12.06
2023-03-26T11:47:04.429Z,12.19
2023-03-26T11:51:08.967Z,12.41
2023-03-26T11:55:14.486Z,12.30
2023-03-26T11:59:28.833Z,12.57
2023-03-26T12:03:30.361Z,12.81
2023-03-26T12:07:34.393Z,12.50
2023-03-26T12:11:36.165Z,12.47
2023-03-26T12:15:43.028Z,12.69
2023-03-26T12:19:45.265Z,12.98
2023-03-26T12:24:06.026Z,12.91
2023-03-26T12:28:15.571Z,12.44
2023-03-26T12:32:17.062Z,12.84
2023-03-26T12:36:26.521Z,12.02
2023-03-26T12:40:34.190Z,12.01
2023-03-26T12:44:58.910Z,12.45
2023-03-26T12:49:08.609Z,12.28
2023-03-26T12:53:27.358Z,12.46
2023-03-26T12:57:42.218Z,11.85
2023-03-26T13:02:01.139Z,11.92
2023-03-26T13:06:48.556Z,12.01
2023-03-26T13:11:23.575Z,11.58
2023-03-26T13:15:59.291Z,11.55
2023-03-26T13:20:15.630Z,11.58
2023-03-26T13:24:47.978Z,11.82
2023-03-26T13:28:56.220Z,11.94
2023-03-26T13:33:25.638Z,12.02
2023-03-26T13:37:29.952Z,12.50
2023-03-26T13:41:45.706Z,12.76
2023-03-26T13:46:00.679Z,12.46
2023-03-26T13:50:06.047Z,12.20
2023-03-26T13:54:16.303Z,12.39
2023-03-26T13:58:34.904Z,12.10
2023-03-26T14:02:40.597Z,12.60
2023-03-26T14:06:57.052Z,12.69
2023-03-26T14:11:10.876Z,12.38
2023-03-26T14:15:18.425Z,12.06
2023-03-26T14:19:49.989Z,12.02
2023-03-26T14:24:23.421Z,12.32
2023-03-26T14:28:54.711Z,12.01
2023-03-26T14:33:12.515Z,11.71
2023-03-26T14:37:32.948Z,11.78
2023-03-26T14:41:46.254Z,11.79
2023-03-26T14:46:16.897Z,11.96
2023-03-26T14:50:26.522Z,11.68
2023-03-26T14:54:32.156Z,12.13
2023-03-26T14:58:55.025Z,12.11
2023-03-26T15:03:18.456Z,12.37
2023-03-26T15:07:37.171Z,12.17
2023-03-26T15:12:12.430Z,12.09
2023-03-26T15:16:52.274Z,12.60
2023-03-26T15:21:25.992Z,11.74
2023-03-26T15:25:57.865Z,11.90
2023-03-26T15:30:29.401Z,11.90
2023-03-26T15:34:30.905Z,12.02
2023-03-26T15:39:00.860Z,11.72
2023-03-26T15:43:16.573Z,11.65
2023-03-26T15:47:36.764Z,11.61
2023-03-26T15:51:53.716Z,11.83
2023-03-26T15:56:25.605Z,11.92
2023-03-26T16:00:30.764Z,11.27
2023-03-26T16:05:21.209Z,11.19
2023-03-26T16:09:38.796Z,10.77
2023-03-26T16:13:50.597Z,10.71
2023-03-26T16:18:11.670Z,10.90
2023-03-26T16:22:35.386Z,10.69
2023-03-26T16:26:44.655Z,11.07
2023-03-26T16:31:37.350Z,10.83
2023-03-26T16:36:18.327Z,10.83
2023-03-26T16:40:27.863Z,10.81
2023-03-26T16:44:56.506Z,10.75
2023-03-26T16:49:10.458Z,10.55
2023-03-26T16:53:23.200Z,10.69
2023-03-26T16:57:28.244Z,10.45
2023-03-26T17:02:20.865Z,10.01
2023-03-26T17:07:03.337Z,10.40
2023-03-26T17:11:15.746Z,10.41
2023-03-26T17:15:41.825Z,10.17
2023-03-26T17:20:09.416Z,10.21
2023-03-26T17:24:27.169Z,10.37
2023-03-26T17:29:13.177Z,10.45
2023-03-26T17:33:29.428Z,10.74
2023-03-26T17:37:40.969Z,11.12
2023-03-26T17:42:13.047Z,10.48
2023-03-26T17:46:33.096Z,10.38
2023-03-26T17:50:45.816Z,10.66
2023-03-26T17:54:50.778Z,10.46
2023-03-26T17:59:00.882Z,11.00
2023-03-26T18:03:29.548Z,11.01
2023-03-26T18:07:57.957Z,10.83
2023-03-26T18:12:37.666Z,10.71
2023-03-26T18:17:01.291Z,10.85
2023-03-26T18:21:46.433Z,10.85
2023-03-26T18:26:32.457Z,10.72
2023-03-26T18:30:46.889Z,10.75
2023-03-26T18:34:58.214Z,10.84
2023-03-26T18:39:00.203Z,10.49
2023-03-26T18:43:01.953Z,10.48
2023-03-26T18:47:07.208Z,10.18
2023-03-26T18:51:10.068Z,10.38
2023-03-26T18:55:14.293Z,9.98
2023-03-26T18:59:27.900Z,9.95
2023-03-26T19:03:35.495Z,10.10
2023-03-26T19:07:37.786Z,9.77
2023-03-26T19:11:41.231Z,9.44
2023-03-26T19:15:46.566Z,9.44
2023-03-26T19:19:49.390Z,9.39
2023-03-26T19:23:52.490Z,9.66
2023-03-26T19:27:54.456Z,9.62
2023-03-26T19:32:14.514Z,9.49
2023-03-26T19:36:21.002Z,9.53
2023-03-26T19:40:30.103Z,9.64
2023-03-26T19:44:32.051Z,9.57
2023-03-26T19:51:18.597Z,9.62
2023-03-26T19:53:21.989Z,9.70
2023-03-26T19:57:23.635Z,9.43
2023-03-26T20:01:27.770Z,9.57
2023-03-26T20:05:33.288Z,8.96
2023-03-26T20:09:35.075Z,9.14
2023-03-26T20:19:12.744Z,8.98
2023-03-26T20:24:45.123Z,9.56
2023-03-26T20:34:53.052Z,8.88
2023-03-26T20:38:54.491Z,9.36
2023-03-26T20:42:56.072Z,8.92
2023-03-26T20:46:58.911Z,8.50
2023-03-26T20:51:01.454Z,8.27
2023-03-26T20:55:03.313Z,7.82
2023-03-26T20:59:10.895Z,8.04
2023-03-26T21:03:15.640Z,7.85
2023-03-26T21:07:18.679Z,8.03
2023-03-26T21:11:45.834Z,8.16
2023-03-26T21:15:47.729Z,8.29
2023-03-26T21:19:50.065Z,8.08
2023-03-26T21:24:09.817Z,7.74
2023-03-26T21:28:41.996Z,7.61
2023-03-26T21:32:45.994Z,7.55
2023-03-26T21:36:48.338Z,7.26
2023-03-26T21:44:55.962Z,7.44
2023-03-26T21:48:57.830Z,7.31
2023-03-26T21:52:59.792Z,7.23
2023-03-26T21:57:22.893Z,7.04
2023-03-26T22:01:58.038Z,7.05
2023-03-26T22:06:02.939Z,6.97
2023-03-26T22:10:05.104Z,6.99
2023-03-26T22:14:08.415Z,7.20
2023-03-26T22:18:10.238Z,7.07
2023-03-26T22:22:12.413Z,6.88
2023-03-26T22:26:21.782Z,6.54
2023-03-26T22:30:23.860Z,6.57
2023-03-26T22:34:25.925Z,6.87
2023-03-26T22:38:27.467Z,7.04
2023-03-26T22:42:28.968Z,6.64
2023-03-26T22:46:31.128Z,6.57
2023-03-26T22:50:33.024Z,6.30
2023-03-26T22:54:36.436Z,6.53
2023-03-26T22:58:38.167Z,6.50
2023-03-26T23:02:40.997Z,6.66
2023-03-26T23:06:42.937Z,6.63
2023-03-26T23:10:45.432Z,6.86
2023-03-26T23:14:52.156Z,6.63
2023-03-26T23:18:53.633Z,6.66
2023-03-26T23:22:55.706Z,6.51
2023-03-26T23:27:17.171Z,6.86
2023-03-26T23:31:44.164Z,6.32
2023-03-26T23:36:10.776Z,6.22
2023-03-26T23:40:33.262Z,6.36
2023-03-26T23:44:56.375Z,6.30
2023-03-26T23:49:18.064Z,6.45
2023-03-26T23:53:39.487Z,6.32
2023-03-26T23:58:01.779Z,6.93
